sensor_id;sensor_type;location;lat;lon;timestamp;temperature;humidity
7360;DHT22;3720;48.274;7.796;2023-06-04T00:02:11;18.20;99.90
7360;DHT22;3720;48.274;7.796;2023-06-04T00:04:43;18.20;99.90
7360;DHT22;3720;48.274;7.796;2023-06-04T00:07:15;18.20;99.90
7360;DHT22;3720;48.274;7.796;2023-06-04T00:09:48;18.20;99.90
7360;DHT22;3720;48.274;7.796;2023-06-04T00:12:20;18.10;99.90
7360;DHT22;3720;48.274;7.796;2023-06-04T00:14:52;18.00;99.90
7360;DHT22;3720;48.274;7.796;2023-06-04T00:17:24;18.00;99.90
7360;DHT22;3720;48.274;7.796;2023-06-04T00:19:56;17.90;99.90
7360;DHT22;3720;48.274;7.796;2023-06-04T00:22:28;17.90;99.90
7360;DHT22;3720;48.274;7.796;2023-06-04T00:25:01;17.80;99.90
7360;DHT22;3720;48.274;7.796;2023-06-04T00:27:33;17.80;99.90
7360;DHT22;3720;48.274;7.796;2023-06-04T00:30:06;17.80;99.90
7360;DHT22;3720;48.274;7.796;2023-06-04T00:32:38;17.90;99.90
7360;DHT22;3720;48.274;7.796;2023-06-04T00:35:10;17.90;99.90
7360;DHT22;3720;48.274;7.796;2023-06-04T00:37:42;17.90;99.90
7360;DHT22;3720;48.274;7.796;2023-06-04T00:40:15;17.90;99.90
7360;DHT22;3720;48.274;7.796;2023-06-04T00:42:48;17.80;99.90
7360;DHT22;3720;48.274;7.796;2023-06-04T00:45:19;17.80;99.90
7360;DHT22;3720;48.274;7.796;2023-06-04T00:47:51;17.90;99.90
7360;DHT22;3720;48.274;7.796;2023-06-04T00:50:24;17.90;99.90
7360;DHT22;3720;48.274;7.796;2023-06-04T00:52:56;17.80;99.90
7360;DHT22;3720;48.274;7.796;2023-06-04T00:55:29;17.80;99.90
7360;DHT22;3720;48.274;7.796;2023-06-04T00:58:01;17.80;99.90
7360;DHT22;3720;48.274;7.796;2023-06-04T01:00:34;17.80;99.90
7360;DHT22;3720;48.274;7.796;2023-06-04T01:03:10;17.80;99.90
7360;DHT22;3720;48.274;7.796;2023-06-04T01:05:50;17.70;99.90
7360;DHT22;3720;48.274;7.796;2023-06-04T01:08:23;17.70;99.90
7360;DHT22;3720;48.274;7.796;2023-06-04T01:10:57;17.70;99.90
7360;DHT22;3720;48.274;7.796;2023-06-04T01:13:29;17.70;99.90
7360;DHT22;3720;48.274;7.796;2023-06-04T01:16:01;17.60;99.90
7360;DHT22;3720;48.274;7.796;2023-06-04T01:18:35;17.70;99.90
7360;DHT22;3720;48.274;7.796;2023-06-04T01:21:09;17.70;99.90
7360;DHT22;3720;48.274;7.796;2023-06-04T01:23:46;17.60;99.90
7360;DHT22;3720;48.274;7.796;2023-06-04T01:26:31;17.70;99.90
7360;DHT22;3720;48.274;7.796;2023-06-04T01:29:03;17.70;99.90
7360;DHT22;3720;48.274;7.796;2023-06-04T01:31:36;17.70;99.90
7360;DHT22;3720;48.274;7.796;2023-06-04T01:34:08;17.70;99.90
7360;DHT22;3720;48.274;7.796;2023-06-04T01:36:40;17.80;99.90
7360;DHT22;3720;48.274;7.796;2023-06-04T01:39:12;17.70;99.90
7360;DHT22;3720;48.274;7.796;2023-06-04T01:41:45;17.70;99.90
7360;DHT22;3720;48.274;7.796;2023-06-04T01:44:17;17.70;99.90
7360;DHT22;3720;48.274;7.796;2023-06-04T01:46:49;17.60;99.90
7360;DHT22;3720;48.274;7.796;2023-06-04T01:49:21;17.60;99.90
7360;DHT22;3720;48.274;7.796;2023-06-04T01:51:53;17.60;99.90
7360;DHT22;3720;48.274;7.796;2023-06-04T01:54:26;17.50;99.90
7360;DHT22;3720;48.274;7.796;2023-06-04T01:57:01;17.40;99.90
7360;DHT22;3720;48.274;7.796;2023-06-04T01:59:35;17.40;99.90
7360;DHT22;3720;48.274;7.796;2023-06-04T02:02:07;17.40;99.90
7360;DHT22;3720;48.274;7.796;2023-06-04T02:04:39;17.40;99.90
7360;DHT22;3720;48.274;7.796;2023-06-04T02:07:13;17.40;99.90
7360;DHT22;3720;48.274;7.796;2023-06-04T02:09:48;17.30;99.90
7360;DHT22;3720;48.274;7.796;2023-06-04T02:12:21;17.20;99.90
7360;DHT22;3720;48.274;7.796;2023-06-04T02:14:53;17.20;99.90
7360;DHT22;3720;48.274;7.796;2023-06-04T02:17:25;17.20;99.90
7360;DHT22;3720;48.274;7.796;2023-06-04T02:19:57;17.20;99.90
7360;DHT22;3720;48.274;7.796;2023-06-04T02:22:31;17.10;99.90
7360;DHT22;3720;48.274;7.796;2023-06-04T02:25:03;17.10;99.90
7360;DHT22;3720;48.274;7.796;2023-06-04T02:27:37;17.00;99.90
7360;DHT22;3720;48.274;7.796;2023-06-04T02:30:10;17.00;99.90
7360;DHT22;3720;48.274;7.796;2023-06-04T02:32:42;17.00;99.90
7360;DHT22;3720;48.274;7.796;2023-06-04T02:35:15;16.90;99.90
7360;DHT22;3720;48.274;7.796;2023-06-04T02:37:46;16.80;99.90
7360;DHT22;3720;48.274;7.796;2023-06-04T02:40:18;16.80;99.90
7360;DHT22;3720;48.274;7.796;2023-06-04T02:42:52;16.80;99.90
7360;DHT22;3720;48.274;7.796;2023-06-04T02:45:24;16.70;99.90
7360;DHT22;3720;48.274;7.796;2023-06-04T02:47:56;16.70;99.90
7360;DHT22;3720;48.274;7.796;2023-06-04T02:50:29;16.60;99.90
7360;DHT22;3720;48.274;7.796;2023-06-04T02:53:00;16.60;99.90
7360;DHT22;3720;48.274;7.796;2023-06-04T02:55:32;16.60;99.90
7360;DHT22;3720;48.274;7.796;2023-06-04T02:58:06;16.60;99.90
7360;DHT22;3720;48.274;7.796;2023-06-04T03:00:39;16.60;99.90
7360;DHT22;3720;48.274;7.796;2023-06-04T03:03:11;16.50;99.90
7360;DHT22;3720;48.274;7.796;2023-06-04T03:05:43;16.50;99.90
7360;DHT22;3720;48.274;7.796;2023-06-04T03:08:15;16.50;99.90
7360;DHT22;3720;48.274;7.796;2023-06-04T03:10:47;16.40;99.90
7360;DHT22;3720;48.274;7.796;2023-06-04T03:13:20;16.50;99.90
7360;DHT22;3720;48.274;7.796;2023-06-04T03:15:52;16.40;99.90
7360;DHT22;3720;48.274;7.796;2023-06-04T03:18:25;16.40;99.90
7360;DHT22;3720;48.274;7.796;2023-06-04T03:20:57;16.30;99.90
7360;DHT22;3720;48.274;7.796;2023-06-04T03:23:29;16.30;99.90
7360;DHT22;3720;48.274;7.796;2023-06-04T03:26:02;16.30;99.90
7360;DHT22;3720;48.274;7.796;2023-06-04T03:28:36;16.30;99.90
7360;DHT22;3720;48.274;7.796;2023-06-04T03:31:08;16.20;99.90
7360;DHT22;3720;48.274;7.796;2023-06-04T03:33:40;16.20;99.90
7360;DHT22;3720;48.274;7.796;2023-06-04T03:36:12;16.20;99.90
7360;DHT22;3720;48.274;7.796;2023-06-04T03:38:45;16.20;99.90
7360;DHT22;3720;48.274;7.796;2023-06-04T03:41:17;16.30;99.90
7360;DHT22;3720;48.274;7.796;2023-06-04T03:43:50;16.20;99.90
7360;DHT22;3720;48.274;7.796;2023-06-04T03:46:23;16.30;99.90
7360;DHT22;3720;48.274;7.796;2023-06-04T03:48:56;16.30;99.90
7360;DHT22;3720;48.274;7.796;2023-06-04T03:51:28;16.30;99.90
7360;DHT22;3720;48.274;7.796;2023-06-04T03:54:01;16.30;99.90
7360;DHT22;3720;48.274;7.796;2023-06-04T03:56:33;16.30;99.90
7360;DHT22;3720;48.274;7.796;2023-06-04T03:59:07;16.20;99.90
7360;DHT22;3720;48.274;7.796;2023-06-04T04:01:39;16.20;99.90
7360;DHT22;3720;48.274;7.796;2023-06-04T04:04:10;16.20;99.90
7360;DHT22;3720;48.274;7.796;2023-06-04T04:06:42;16.30;99.90
7360;DHT22;3720;48.274;7.796;2023-06-04T04:09:14;16.30;99.90
7360;DHT22;3720;48.274;7.796;2023-06-04T04:11:46;16.30;99.90
7360;DHT22;3720;48.274;7.796;2023-06-04T04:14:19;16.30;99.90
7360;DHT22;3720;48.274;7.796;2023-06-04T04:16:51;16.30;99.90
7360;DHT22;3720;48.274;7.796;2023-06-04T04:19:23;16.30;99.90
7360;DHT22;3720;48.274;7.796;2023-06-04T04:21:55;16.30;99.90
7360;DHT22;3720;48.274;7.796;2023-06-04T04:24:27;16.30;99.90
7360;DHT22;3720;48.274;7.796;2023-06-04T04:26:59;16.30;99.90
7360;DHT22;3720;48.274;7.796;2023-06-04T04:29:35;16.30;99.90
7360;DHT22;3720;48.274;7.796;2023-06-04T04:32:07;16.30;99.90
7360;DHT22;3720;48.274;7.796;2023-06-04T04:34:50;16.30;99.90
7360;DHT22;3720;48.274;7.796;2023-06-04T04:37:24;16.40;99.90
7360;DHT22;3720;48.274;7.796;2023-06-04T04:39:57;16.50;99.90
7360;DHT22;3720;48.274;7.796;2023-06-04T04:42:28;16.50;99.90
7360;DHT22;3720;48.274;7.796;2023-06-04T04:45:02;16.50;99.90
7360;DHT22;3720;48.274;7.796;2023-06-04T04:47:34;16.50;99.90
7360;DHT22;3720;48.274;7.796;2023-06-04T04:50:06;16.60;99.90
7360;DHT22;3720;48.274;7.796;2023-06-04T04:52:38;16.60;99.90
7360;DHT22;3720;48.274;7.796;2023-06-04T04:55:10;16.70;99.90
7360;DHT22;3720;48.274;7.796;2023-06-04T04:57:43;16.70;99.90
7360;DHT22;3720;48.274;7.796;2023-06-04T05:00:17;16.60;99.90
7360;DHT22;3720;48.274;7.796;2023-06-04T05:02:49;16.70;99.90
7360;DHT22;3720;48.274;7.796;2023-06-04T05:05:21;16.70;99.90
7360;DHT22;3720;48.274;7.796;2023-06-04T05:07:53;16.70;99.90
7360;DHT22;3720;48.274;7.796;2023-06-04T05:10:25;16.70;99.90
7360;DHT22;3720;48.274;7.796;2023-06-04T05:12:58;16.70;99.90
7360;DHT22;3720;48.274;7.796;2023-06-04T05:15:32;16.80;99.90
7360;DHT22;3720;48.274;7.796;2023-06-04T05:18:04;16.70;99.90
7360;DHT22;3720;48.274;7.796;2023-06-04T05:20:36;16.80;99.90
7360;DHT22;3720;48.274;7.796;2023-06-04T05:23:08;16.90;99.90
7360;DHT22;3720;48.274;7.796;2023-06-04T05:25:42;16.90;99.90
7360;DHT22;3720;48.274;7.796;2023-06-04T05:28:14;17.00;99.90
7360;DHT22;3720;48.274;7.796;2023-06-04T05:30:47;17.00;99.90
7360;DHT22;3720;48.274;7.796;2023-06-04T05:33:19;17.00;99.90
7360;DHT22;3720;48.274;7.796;2023-06-04T05:35:51;17.00;99.90
7360;DHT22;3720;48.274;7.796;2023-06-04T05:38:24;17.00;99.90
7360;DHT22;3720;48.274;7.796;2023-06-04T05:40:57;17.00;99.90
7360;DHT22;3720;48.274;7.796;2023-06-04T05:43:29;17.00;99.90
7360;DHT22;3720;48.274;7.796;2023-06-04T05:46:02;17.10;99.90
7360;DHT22;3720;48.274;7.796;2023-06-04T05:48:34;17.10;99.90
7360;DHT22;3720;48.274;7.796;2023-06-04T05:51:06;17.20;99.90
7360;DHT22;3720;48.274;7.796;2023-06-04T05:53:38;17.40;99.90
7360;DHT22;3720;48.274;7.796;2023-06-04T05:56:10;17.40;99.90
7360;DHT22;3720;48.274;7.796;2023-06-04T05:58:42;17.40;99.90
7360;DHT22;3720;48.274;7.796;2023-06-04T06:01:15;17.50;99.90
7360;DHT22;3720;48.274;7.796;2023-06-04T06:03:47;17.60;99.90
7360;DHT22;3720;48.274;7.796;2023-06-04T06:06:19;17.80;99.90
7360;DHT22;3720;48.274;7.796;2023-06-04T06:08:51;17.90;99.90
7360;DHT22;3720;48.274;7.796;2023-06-04T06:11:23;17.90;99.90
7360;DHT22;3720;48.274;7.796;2023-06-04T06:13:57;18.00;99.90
7360;DHT22;3720;48.274;7.796;2023-06-04T06:16:30;18.30;99.90
7360;DHT22;3720;48.274;7.796;2023-06-04T06:19:03;18.40;99.90
7360;DHT22;3720;48.274;7.796;2023-06-04T06:21:35;18.50;99.90
7360;DHT22;3720;48.274;7.796;2023-06-04T06:24:08;18.60;99.90
7360;DHT22;3720;48.274;7.796;2023-06-04T06:26:39;18.70;99.90
7360;DHT22;3720;48.274;7.796;2023-06-04T06:29:11;18.70;99.90
7360;DHT22;3720;48.274;7.796;2023-06-04T06:31:45;18.80;99.90
7360;DHT22;3720;48.274;7.796;2023-06-04T06:34:17;18.70;99.90
7360;DHT22;3720;48.274;7.796;2023-06-04T06:36:48;18.80;99.90
7360;DHT22;3720;48.274;7.796;2023-06-04T06:39:21;18.80;99.90
7360;DHT22;3720;48.274;7.796;2023-06-04T06:41:52;18.80;99.90
7360;DHT22;3720;48.274;7.796;2023-06-04T06:44:24;18.80;99.90
7360;DHT22;3720;48.274;7.796;2023-06-04T06:46:57;18.80;99.90
7360;DHT22;3720;48.274;7.796;2023-06-04T06:49:29;18.90;99.90
7360;DHT22;3720;48.274;7.796;2023-06-04T06:52:01;19.00;99.90
7360;DHT22;3720;48.274;7.796;2023-06-04T06:54:33;19.00;99.90
7360;DHT22;3720;48.274;7.796;2023-06-04T06:57:05;19.20;99.90
7360;DHT22;3720;48.274;7.796;2023-06-04T06:59:39;19.20;99.90
7360;DHT22;3720;48.274;7.796;2023-06-04T07:02:12;19.20;99.90
7360;DHT22;3720;48.274;7.796;2023-06-04T07:04:44;19.20;99.90
7360;DHT22;3720;48.274;7.796;2023-06-04T07:07:16;19.20;99.90
7360;DHT22;3720;48.274;7.796;2023-06-04T07:09:48;19.10;99.90
7360;DHT22;3720;48.274;7.796;2023-06-04T07:12:21;19.10;99.90
7360;DHT22;3720;48.274;7.796;2023-06-04T07:14:53;19.10;99.90
7360;DHT22;3720;48.274;7.796;2023-06-04T07:17:26;19.00;99.90
7360;DHT22;3720;48.274;7.796;2023-06-04T07:19:58;18.80;99.90
7360;DHT22;3720;48.274;7.796;2023-06-04T07:22:30;18.50;99.90
7360;DHT22;3720;48.274;7.796;2023-06-04T07:25:02;18.40;99.90
7360;DHT22;3720;48.274;7.796;2023-06-04T07:27:34;18.20;99.90
7360;DHT22;3720;48.274;7.796;2023-06-04T07:30:09;18.10;99.90
7360;DHT22;3720;48.274;7.796;2023-06-04T07:32:46;17.90;99.90
7360;DHT22;3720;48.274;7.796;2023-06-04T07:35:18;17.90;99.90
7360;DHT22;3720;48.274;7.796;2023-06-04T07:37:50;17.70;99.90
7360;DHT22;3720;48.274;7.796;2023-06-04T07:40:22;17.70;99.90
7360;DHT22;3720;48.274;7.796;2023-06-04T07:42:54;17.60;99.90
7360;DHT22;3720;48.274;7.796;2023-06-04T07:45:26;17.50;99.90
7360;DHT22;3720;48.274;7.796;2023-06-04T07:48:01;17.40;99.90
7360;DHT22;3720;48.274;7.796;2023-06-04T07:50:33;17.40;99.90
7360;DHT22;3720;48.274;7.796;2023-06-04T07:53:05;17.30;99.90
7360;DHT22;3720;48.274;7.796;2023-06-04T07:55:37;17.20;99.90
7360;DHT22;3720;48.274;7.796;2023-06-04T07:58:08;17.10;99.90
7360;DHT22;3720;48.274;7.796;2023-06-04T08:00:41;17.00;99.90
7360;DHT22;3720;48.274;7.796;2023-06-04T08:03:14;17.00;99.90
7360;DHT22;3720;48.274;7.796;2023-06-04T08:05:47;16.90;99.90
7360;DHT22;3720;48.274;7.796;2023-06-04T08:08:18;16.80;99.90
7360;DHT22;3720;48.274;7.796;2023-06-04T08:10:50;16.70;99.90
7360;DHT22;3720;48.274;7.796;2023-06-04T08:13:22;16.70;99.90
7360;DHT22;3720;48.274;7.796;2023-06-04T08:15:54;16.70;99.90
7360;DHT22;3720;48.274;7.796;2023-06-04T08:18:27;16.70;99.90
7360;DHT22;3720;48.274;7.796;2023-06-04T08:20:59;16.70;99.90
7360;DHT22;3720;48.274;7.796;2023-06-04T08:23:31;16.70;99.90
7360;DHT22;3720;48.274;7.796;2023-06-04T08:26:03;16.60;99.90
7360;DHT22;3720;48.274;7.796;2023-06-04T08:28:35;16.50;99.90
7360;DHT22;3720;48.274;7.796;2023-06-04T08:31:09;16.50;99.90
7360;DHT22;3720;48.274;7.796;2023-06-04T08:33:42;16.50;99.90
7360;DHT22;3720;48.274;7.796;2023-06-04T08:36:14;16.30;99.90
7360;DHT22;3720;48.274;7.796;2023-06-04T08:38:46;16.20;99.90
7360;DHT22;3720;48.274;7.796;2023-06-04T08:41:24;16.20;99.90
7360;DHT22;3720;48.274;7.796;2023-06-04T08:43:59;16.20;99.90
7360;DHT22;3720;48.274;7.796;2023-06-04T08:46:33;16.10;99.90
7360;DHT22;3720;48.274;7.796;2023-06-04T08:49:08;16.10;99.90
7360;DHT22;3720;48.274;7.796;2023-06-04T08:51:40;16.00;99.90
7360;DHT22;3720;48.274;7.796;2023-06-04T08:54:13;16.00;99.90
7360;DHT22;3720;48.274;7.796;2023-06-04T08:56:45;16.00;99.90
7360;DHT22;3720;48.274;7.796;2023-06-04T08:59:19;16.00;99.90
7360;DHT22;3720;48.274;7.796;2023-06-04T09:01:52;16.00;99.90
7360;DHT22;3720;48.274;7.796;2023-06-04T09:04:26;15.80;99.90
7360;DHT22;3720;48.274;7.796;2023-06-04T09:07:01;15.90;99.90
7360;DHT22;3720;48.274;7.796;2023-06-04T09:09:37;16.00;99.90
7360;DHT22;3720;48.274;7.796;2023-06-04T09:12:10;16.10;99.90
7360;DHT22;3720;48.274;7.796;2023-06-04T09:14:43;16.20;99.90
7360;DHT22;3720;48.274;7.796;2023-06-04T09:17:15;16.20;99.90
7360;DHT22;3720;48.274;7.796;2023-06-04T09:19:53;16.30;99.90
7360;DHT22;3720;48.274;7.796;2023-06-04T09:22:32;16.30;99.90
7360;DHT22;3720;48.274;7.796;2023-06-04T09:25:06;16.30;99.90
7360;DHT22;3720;48.274;7.796;2023-06-04T09:27:39;16.30;99.90
7360;DHT22;3720;48.274;7.796;2023-06-04T09:30:12;16.40;99.90
7360;DHT22;3720;48.274;7.796;2023-06-04T09:32:48;16.50;99.90
7360;DHT22;3720;48.274;7.796;2023-06-04T09:35:21;16.60;99.90
7360;DHT22;3720;48.274;7.796;2023-06-04T09:37:55;16.60;99.90
7360;DHT22;3720;48.274;7.796;2023-06-04T09:40:35;16.60;99.90
7360;DHT22;3720;48.274;7.796;2023-06-04T09:43:08;16.70;99.90
7360;DHT22;3720;48.274;7.796;2023-06-04T09:45:42;16.80;99.90
7360;DHT22;3720;48.274;7.796;2023-06-04T09:48:19;16.90;99.90
7360;DHT22;3720;48.274;7.796;2023-06-04T09:50:53;17.00;99.90
7360;DHT22;3720;48.274;7.796;2023-06-04T09:53:25;17.10;99.90
7360;DHT22;3720;48.274;7.796;2023-06-04T09:55:59;17.10;99.90
7360;DHT22;3720;48.274;7.796;2023-06-04T09:58:32;17.10;99.90
7360;DHT22;3720;48.274;7.796;2023-06-04T10:01:05;17.20;99.90
7360;DHT22;3720;48.274;7.796;2023-06-04T10:03:40;17.30;99.90
7360;DHT22;3720;48.274;7.796;2023-06-04T10:06:15;17.30;99.90
7360;DHT22;3720;48.274;7.796;2023-06-04T10:08:50;17.40;99.90
7360;DHT22;3720;48.274;7.796;2023-06-04T10:11:25;17.50;99.90
7360;DHT22;3720;48.274;7.796;2023-06-04T10:14:02;17.60;99.90
7360;DHT22;3720;48.274;7.796;2023-06-04T10:16:37;17.70;99.90
7360;DHT22;3720;48.274;7.796;2023-06-04T10:19:11;17.80;99.90
7360;DHT22;3720;48.274;7.796;2023-06-04T10:21:45;17.90;99.90
7360;DHT22;3720;48.274;7.796;2023-06-04T10:24:17;18.00;99.90
7360;DHT22;3720;48.274;7.796;2023-06-04T10:26:51;18.00;99.90
7360;DHT22;3720;48.274;7.796;2023-06-04T10:29:25;18.10;99.90
7360;DHT22;3720;48.274;7.796;2023-06-04T10:31:57;18.10;99.90
7360;DHT22;3720;48.274;7.796;2023-06-04T10:34:30;18.20;99.90
7360;DHT22;3720;48.274;7.796;2023-06-04T10:37:04;18.40;99.90
7360;DHT22;3720;48.274;7.796;2023-06-04T10:39:36;18.50;99.90
7360;DHT22;3720;48.274;7.796;2023-06-04T10:42:08;18.70;99.90
7360;DHT22;3720;48.274;7.796;2023-06-04T10:44:46;18.90;99.90
7360;DHT22;3720;48.274;7.796;2023-06-04T10:47:19;19.10;99.90
7360;DHT22;3720;48.274;7.796;2023-06-04T10:49:54;19.10;99.90
7360;DHT22;3720;48.274;7.796;2023-06-04T10:52:28;19.20;99.90
7360;DHT22;3720;48.274;7.796;2023-06-04T10:55:04;19.30;99.90
7360;DHT22;3720;48.274;7.796;2023-06-04T10:57:37;19.40;99.90
7360;DHT22;3720;48.274;7.796;2023-06-04T11:00:10;19.50;99.90
7360;DHT22;3720;48.274;7.796;2023-06-04T11:02:50;19.70;99.90
7360;DHT22;3720;48.274;7.796;2023-06-04T11:05:34;19.70;99.90
7360;DHT22;3720;48.274;7.796;2023-06-04T11:08:07;19.80;99.90
7360;DHT22;3720;48.274;7.796;2023-06-04T11:10:41;19.80;99.90
7360;DHT22;3720;48.274;7.796;2023-06-04T11:13:14;19.80;99.90
7360;DHT22;3720;48.274;7.796;2023-06-04T11:15:46;19.90;99.90
7360;DHT22;3720;48.274;7.796;2023-06-04T11:18:21;20.00;99.90
7360;DHT22;3720;48.274;7.796;2023-06-04T11:20:59;20.10;99.90
7360;DHT22;3720;48.274;7.796;2023-06-04T11:23:33;20.10;99.90
7360;DHT22;3720;48.274;7.796;2023-06-04T11:26:06;20.10;99.90
7360;DHT22;3720;48.274;7.796;2023-06-04T11:28:38;20.00;99.90
7360;DHT22;3720;48.274;7.796;2023-06-04T11:31:10;20.10;99.90
7360;DHT22;3720;48.274;7.796;2023-06-04T11:33:43;20.10;99.90
7360;DHT22;3720;48.274;7.796;2023-06-04T11:36:23;20.10;99.90
7360;DHT22;3720;48.274;7.796;2023-06-04T11:38:58;20.10;99.90
7360;DHT22;3720;48.274;7.796;2023-06-04T11:41:31;20.30;99.90
7360;DHT22;3720;48.274;7.796;2023-06-04T11:44:04;20.30;99.90
7360;DHT22;3720;48.274;7.796;2023-06-04T11:46:40;20.40;99.90
7360;DHT22;3720;48.274;7.796;2023-06-04T11:49:13;20.50;99.90
7360;DHT22;3720;48.274;7.796;2023-06-04T11:51:47;20.50;99.90
7360;DHT22;3720;48.274;7.796;2023-06-04T11:54:21;20.70;99.90
7360;DHT22;3720;48.274;7.796;2023-06-04T11:56:53;20.90;99.90
7360;DHT22;3720;48.274;7.796;2023-06-04T11:59:25;21.00;99.90
7360;DHT22;3720;48.274;7.796;2023-06-04T12:01:57;21.10;99.90
7360;DHT22;3720;48.274;7.796;2023-06-04T12:04:30;21.30;99.90
7360;DHT22;3720;48.274;7.796;2023-06-04T12:07:03;21.40;99.90
7360;DHT22;3720;48.274;7.796;2023-06-04T12:09:38;21.50;99.90
7360;DHT22;3720;48.274;7.796;2023-06-04T12:12:10;21.60;99.90
7360;DHT22;3720;48.274;7.796;2023-06-04T12:14:43;21.70;99.90
7360;DHT22;3720;48.274;7.796;2023-06-04T12:17:15;21.80;99.90
7360;DHT22;3720;48.274;7.796;2023-06-04T12:19:47;21.90;99.90
7360;DHT22;3720;48.274;7.796;2023-06-04T12:22:20;22.10;99.90
7360;DHT22;3720;48.274;7.796;2023-06-04T12:24:54;22.20;99.90
7360;DHT22;3720;48.274;7.796;2023-06-04T12:27:26;22.40;99.90
7360;DHT22;3720;48.274;7.796;2023-06-04T12:29:59;22.60;99.90
7360;DHT22;3720;48.274;7.796;2023-06-04T12:32:35;22.80;99.90
7360;DHT22;3720;48.274;7.796;2023-06-04T12:35:07;23.00;99.90
7360;DHT22;3720;48.274;7.796;2023-06-04T12:37:40;23.10;99.90
7360;DHT22;3720;48.274;7.796;2023-06-04T12:40:13;23.30;99.90
7360;DHT22;3720;48.274;7.796;2023-06-04T12:42:45;23.50;99.90
7360;DHT22;3720;48.274;7.796;2023-06-04T12:45:17;23.80;99.90
7360;DHT22;3720;48.274;7.796;2023-06-04T12:47:50;24.10;99.90
7360;DHT22;3720;48.274;7.796;2023-06-04T12:50:21;24.30;99.90
7360;DHT22;3720;48.274;7.796;2023-06-04T12:52:53;24.50;99.90
7360;DHT22;3720;48.274;7.796;2023-06-04T12:55:27;24.70;99.90
7360;DHT22;3720;48.274;7.796;2023-06-04T12:57:59;24.80;99.90
7360;DHT22;3720;48.274;7.796;2023-06-04T13:00:31;24.90;99.90
7360;DHT22;3720;48.274;7.796;2023-06-04T13:03:03;25.00;99.90
7360;DHT22;3720;48.274;7.796;2023-06-04T13:05:36;25.10;99.90
7360;DHT22;3720;48.274;7.796;2023-06-04T13:08:08;25.20;99.90
7360;DHT22;3720;48.274;7.796;2023-06-04T13:10:41;25.30;99.90
7360;DHT22;3720;48.274;7.796;2023-06-04T13:13:13;25.60;99.90
7360;DHT22;3720;48.274;7.796;2023-06-04T13:15:46;25.80;99.90
7360;DHT22;3720;48.274;7.796;2023-06-04T13:18:18;26.00;99.90
7360;DHT22;3720;48.274;7.796;2023-06-04T13:20:50;26.40;99.90
7360;DHT22;3720;48.274;7.796;2023-06-04T13:23:22;26.70;99.90
7360;DHT22;3720;48.274;7.796;2023-06-04T13:25:55;26.90;99.90
7360;DHT22;3720;48.274;7.796;2023-06-04T13:28:28;27.00;99.90
7360;DHT22;3720;48.274;7.796;2023-06-04T13:31:00;27.20;99.90
7360;DHT22;3720;48.274;7.796;2023-06-04T13:33:32;27.50;99.90
7360;DHT22;3720;48.274;7.796;2023-06-04T13:36:14;27.60;99.90
7360;DHT22;3720;48.274;7.796;2023-06-04T13:38:46;27.50;99.90
7360;DHT22;3720;48.274;7.796;2023-06-04T13:41:20;27.30;99.90
7360;DHT22;3720;48.274;7.796;2023-06-04T13:43:52;27.20;99.90
7360;DHT22;3720;48.274;7.796;2023-06-04T13:46:24;27.20;99.90
7360;DHT22;3720;48.274;7.796;2023-06-04T13:48:56;27.30;99.90
7360;DHT22;3720;48.274;7.796;2023-06-04T13:51:28;27.30;99.90
7360;DHT22;3720;48.274;7.796;2023-06-04T13:54:00;27.30;99.90
7360;DHT22;3720;48.274;7.796;2023-06-04T13:56:34;27.20;99.90
7360;DHT22;3720;48.274;7.796;2023-06-04T13:59:06;27.30;99.90
7360;DHT22;3720;48.274;7.796;2023-06-04T14:01:37;27.30;99.90
7360;DHT22;3720;48.274;7.796;2023-06-04T14:04:09;27.40;99.90
7360;DHT22;3720;48.274;7.796;2023-06-04T14:06:42;27.40;99.90
7360;DHT22;3720;48.274;7.796;2023-06-04T14:09:14;27.40;99.90
7360;DHT22;3720;48.274;7.796;2023-06-04T14:11:48;27.50;99.90
7360;DHT22;3720;48.274;7.796;2023-06-04T14:14:21;27.60;99.90
7360;DHT22;3720;48.274;7.796;2023-06-04T14:16:53;27.70;99.90
7360;DHT22;3720;48.274;7.796;2023-06-04T14:19:26;27.80;99.90
7360;DHT22;3720;48.274;7.796;2023-06-04T14:21:58;27.80;99.90
7360;DHT22;3720;48.274;7.796;2023-06-04T14:24:30;27.70;99.20
7360;DHT22;3720;48.274;7.796;2023-06-04T14:27:04;27.70;99.10
7360;DHT22;3720;48.274;7.796;2023-06-04T14:29:37;27.70;98.40
7360;DHT22;3720;48.274;7.796;2023-06-04T14:32:09;27.80;98.80
7360;DHT22;3720;48.274;7.796;2023-06-04T14:34:40;28.20;98.40
7360;DHT22;3720;48.274;7.796;2023-06-04T14:37:12;28.50;98.20
7360;DHT22;3720;48.274;7.796;2023-06-04T14:39:44;28.80;95.90
7360;DHT22;3720;48.274;7.796;2023-06-04T14:42:17;29.10;95.40
7360;DHT22;3720;48.274;7.796;2023-06-04T14:44:49;29.30;94.70
7360;DHT22;3720;48.274;7.796;2023-06-04T14:47:21;29.50;94.80
7360;DHT22;3720;48.274;7.796;2023-06-04T14:49:53;29.80;93.10
7360;DHT22;3720;48.274;7.796;2023-06-04T14:52:25;29.90;91.20
7360;DHT22;3720;48.274;7.796;2023-06-04T14:54:58;29.80;90.20
7360;DHT22;3720;48.274;7.796;2023-06-04T14:57:32;29.70;90.50
7360;DHT22;3720;48.274;7.796;2023-06-04T15:00:05;29.60;90.70
7360;DHT22;3720;48.274;7.796;2023-06-04T15:02:38;29.70;91.40
7360;DHT22;3720;48.274;7.796;2023-06-04T15:05:10;29.90;87.70
7360;DHT22;3720;48.274;7.796;2023-06-04T15:07:42;30.00;89.10
7360;DHT22;3720;48.274;7.796;2023-06-04T15:10:14;30.10;89.10
7360;DHT22;3720;48.274;7.796;2023-06-04T15:12:47;30.20;86.00
7360;DHT22;3720;48.274;7.796;2023-06-04T15:15:19;30.20;83.60
7360;DHT22;3720;48.274;7.796;2023-06-04T15:17:51;30.20;82.20
7360;DHT22;3720;48.274;7.796;2023-06-04T15:20:23;30.30;84.30
7360;DHT22;3720;48.274;7.796;2023-06-04T15:22:57;30.40;83.80
7360;DHT22;3720;48.274;7.796;2023-06-04T15:25:30;30.50;81.20
7360;DHT22;3720;48.274;7.796;2023-06-04T15:28:03;30.50;80.60
7360;DHT22;3720;48.274;7.796;2023-06-04T15:30:35;30.50;80.30
7360;DHT22;3720;48.274;7.796;2023-06-04T15:33:07;30.50;78.50
7360;DHT22;3720;48.274;7.796;2023-06-04T15:35:39;30.50;80.50
7360;DHT22;3720;48.274;7.796;2023-06-04T15:38:11;30.50;78.20
7360;DHT22;3720;48.274;7.796;2023-06-04T15:40:43;30.50;75.30
7360;DHT22;3720;48.274;7.796;2023-06-04T15:43:16;30.40;77.40
7360;DHT22;3720;48.274;7.796;2023-06-04T15:45:48;30.40;74.80
7360;DHT22;3720;48.274;7.796;2023-06-04T15:48:20;30.20;74.30
7360;DHT22;3720;48.274;7.796;2023-06-04T15:50:53;30.10;72.80
7360;DHT22;3720;48.274;7.796;2023-06-04T15:53:25;30.00;75.10
7360;DHT22;3720;48.274;7.796;2023-06-04T15:55:56;29.90;78.70
7360;DHT22;3720;48.274;7.796;2023-06-04T15:58:30;29.80;77.80
7360;DHT22;3720;48.274;7.796;2023-06-04T16:01:02;29.80;79.60
7360;DHT22;3720;48.274;7.796;2023-06-04T16:03:33;29.70;78.50
7360;DHT22;3720;48.274;7.796;2023-06-04T16:06:06;29.50;77.80
7360;DHT22;3720;48.274;7.796;2023-06-04T16:08:38;29.30;77.20
7360;DHT22;3720;48.274;7.796;2023-06-04T16:11:11;29.20;78.30
7360;DHT22;3720;48.274;7.796;2023-06-04T16:13:45;29.20;78.30
7360;DHT22;3720;48.274;7.796;2023-06-04T16:16:17;29.20;79.60
7360;DHT22;3720;48.274;7.796;2023-06-04T16:18:49;29.20;77.80
7360;DHT22;3720;48.274;7.796;2023-06-04T16:21:21;29.10;78.70
7360;DHT22;3720;48.274;7.796;2023-06-04T16:23:53;29.10;79.40
7360;DHT22;3720;48.274;7.796;2023-06-04T16:26:25;29.10;78.70
7360;DHT22;3720;48.274;7.796;2023-06-04T16:28:59;29.10;78.00
7360;DHT22;3720;48.274;7.796;2023-06-04T16:31:31;29.00;78.30
7360;DHT22;3720;48.274;7.796;2023-06-04T16:34:03;29.00;78.80
7360;DHT22;3720;48.274;7.796;2023-06-04T16:36:35;29.10;79.10
7360;DHT22;3720;48.274;7.796;2023-06-04T16:39:08;29.10;80.20